createdAt,value
2017-03-17T00:01:08.523Z,1005.81
2017-03-17T00:02:22.645Z,1005.76
2017-03-17T00:03:37.076Z,1005.74
2017-03-17T00:04:53.032Z,1005.72
2017-03-17T00:06:08.931Z,1005.73
2017-03-17T00:07:25.314Z,1005.76
2017-03-17T00:08:40.274Z,1005.77
2017-03-17T00:09:55.196Z,1005.75
2017-03-17T00:11:10.663Z,1005.7
2017-03-17T00:12:28.062Z,1005.67
2017-03-17T00:13:43.581Z,1005.67
2017-03-17T00:14:59.921Z,1005.65
2017-03-17T00:16:19.042Z,1005.62
2017-03-17T00:17:41.086Z,1005.56
2017-03-17T00:18:59.823Z,1005.56
2017-03-17T00:20:15.766Z,1005.54
2017-03-17T00:21:32.664Z,1005.58
2017-03-17T00:22:49.421Z,1005.55
2017-03-17T00:24:06.692Z,1005.5
2017-03-17T00:25:24.587Z,1005.49
2017-03-17T00:26:43.259Z,1005.52
2017-03-17T00:27:58.577Z,1005.5
2017-03-17T00:29:14.473Z,1005.46
2017-03-17T00:30:29.355Z,1005.51
2017-03-17T00:31:44.461Z,1005.5
2017-03-17T00:33:02.067Z,1005.48
2017-03-17T00:34:17.104Z,1005.46
2017-03-17T00:35:32.354Z,1005.43
2017-03-17T00:36:47.205Z,1005.42
2017-03-17T00:38:02.618Z,1005.4
2017-03-17T00:39:19.482Z,1005.4
2017-03-17T00:40:36.937Z,1005.35
2017-03-17T00:41:51.475Z,1005.37
2017-03-17T00:43:05.564Z,1005.34
2017-03-17T00:44:20.175Z,1005.37
2017-03-17T00:45:34.223Z,1005.39
2017-03-17T00:46:49.376Z,1005.38
2017-03-17T00:48:03.152Z,1005.38
2017-03-17T00:49:16.882Z,1005.37
2017-03-17T00:50:31.863Z,1005.4
2017-03-17T00:51:46.001Z,1005.45
2017-03-17T00:53:00.895Z,1005.43
2017-03-17T00:54:15.336Z,1005.41
2017-03-17T00:55:30.886Z,1005.39
2017-03-17T00:56:44.950Z,1005.36
2017-03-17T00:57:59.657Z,1005.36
2017-03-17T00:59:15.279Z,1005.39
2017-03-17T01:00:29.800Z,1005.41
2017-03-17T01:01:44.720Z,1005.37
2017-03-17T01:02:58.713Z,1005.43
2017-03-17T01:04:12.812Z,1005.42
2017-03-17T01:05:27.957Z,1005.41
2017-03-17T01:06:41.730Z,1005.33
2017-03-17T01:07:57.336Z,1005.3
2017-03-17T01:09:12.212Z,1005.27
2017-03-17T01:10:28.511Z,1005.26
2017-03-17T01:11:43.624Z,1005.27
2017-03-17T01:12:58.055Z,1005.23
2017-03-17T01:14:13.225Z,1005.2
2017-03-17T01:15:28.134Z,1005.21
2017-03-17T01:16:42.622Z,1005.13
2017-03-17T01:17:56.696Z,1005.09
2017-03-17T01:19:11.349Z,1005.07
2017-03-17T01:20:25.092Z,1005.04
2017-03-17T01:21:38.870Z,1005.02
2017-03-17T01:22:52.892Z,1004.98
2017-03-17T01:24:07.108Z,1004.97
2017-03-17T01:25:21.069Z,1004.96
2017-03-17T01:26:35.023Z,1004.93
2017-03-17T01:27:48.860Z,1004.96
2017-03-17T01:29:02.532Z,1004.92
2017-03-17T01:30:16.158Z,1004.9
2017-03-17T01:31:29.782Z,1004.85
2017-03-17T01:32:56.537Z,1004.79
2017-03-17T01:34:10.121Z,1004.75
2017-03-17T01:35:23.807Z,1004.73
2017-03-17T01:36:37.403Z,1004.73
2017-03-17T01:37:51.162Z,1004.74
2017-03-17T01:39:05.575Z,1004.75
2017-03-17T01:40:19.312Z,1004.72
2017-03-17T01:41:33.042Z,1004.71
2017-03-17T01:42:49.370Z,1004.66
2017-03-17T01:44:03.375Z,1004.65
2017-03-17T01:45:17.038Z,1004.66
2017-03-17T01:46:31.022Z,1004.64
2017-03-17T01:47:45.037Z,1004.65
2017-03-17T01:48:59.007Z,1004.61
2017-03-17T01:50:12.811Z,1004.63
2017-03-17T01:51:26.504Z,1004.6
2017-03-17T01:52:40.280Z,1004.6
2017-03-17T01:53:54.224Z,1004.62
2017-03-17T01:55:07.843Z,1004.64
2017-03-17T01:56:21.416Z,1004.6
2017-03-17T01:57:35.374Z,1004.62
2017-03-17T01:58:50.042Z,1004.59
2017-03-17T02:00:03.991Z,1004.61
2017-03-17T02:01:18.314Z,1004.58
2017-03-17T02:02:32.627Z,1004.61
2017-03-17T02:03:47.055Z,1004.56
2017-03-17T02:05:01.133Z,1004.5
2017-03-17T02:06:14.855Z,1004.5
2017-03-17T02:07:28.937Z,1004.5
2017-03-17T02:08:43.008Z,1004.49
2017-03-17T02:09:57.067Z,1004.51
2017-03-17T02:11:10.681Z,1004.46
2017-03-17T02:12:24.285Z,1004.37
2017-03-17T02:13:38.397Z,1004.32
2017-03-17T02:14:52.287Z,1004.33
2017-03-17T02:16:05.877Z,1004.28
2017-03-17T02:17:19.513Z,1004.3
2017-03-17T02:18:33.807Z,1004.3
2017-03-17T02:19:47.935Z,1004.26
2017-03-17T02:21:01.606Z,1004.28
2017-03-17T02:22:15.555Z,1004.22
2017-03-17T02:23:29.490Z,1004.23
2017-03-17T02:24:43.750Z,1004.27
2017-03-17T02:25:57.538Z,1004.26
2017-03-17T02:27:11.988Z,1004.24
2017-03-17T02:28:25.589Z,1004.23
2017-03-17T02:29:39.679Z,1004.23
2017-03-17T02:30:53.807Z,1004.26
2017-03-17T02:32:08.153Z,1004.25
2017-03-17T02:33:21.788Z,1004.28
2017-03-17T02:34:35.468Z,1004.28
2017-03-17T02:35:49.523Z,1004.3
2017-03-17T02:37:03.336Z,1004.28
2017-03-17T02:38:17.758Z,1004.32
2017-03-17T02:39:31.808Z,1004.32
2017-03-17T02:40:46.168Z,1004.35
2017-03-17T02:42:00.242Z,1004.29
2017-03-17T02:43:13.893Z,1004.31
2017-03-17T02:44:27.551Z,1004.31
2017-03-17T02:45:41.723Z,1004.28
2017-03-17T02:46:55.312Z,1004.3
2017-03-17T02:48:09.271Z,1004.3
2017-03-17T02:49:23.252Z,1004.31
2017-03-17T02:50:37.439Z,1004.29
2017-03-17T02:51:51.121Z,1004.31
2017-03-17T02:53:04.735Z,1004.27
2017-03-17T02:54:18.790Z,1004.33
2017-03-17T02:55:32.478Z,1004.3
2017-03-17T02:56:47.287Z,1004.29
2017-03-17T02:58:01.379Z,1004.32
2017-03-17T02:59:17.574Z,1004.3
2017-03-17T03:00:31.696Z,1004.37
2017-03-17T03:01:45.815Z,1004.35
2017-03-17T03:02:59.432Z,1004.35
2017-03-17T03:04:13.943Z,1004.33
2017-03-17T03:05:28.060Z,1004.29
2017-03-17T03:06:42.164Z,1004.32
2017-03-17T03:07:55.778Z,1004.33
2017-03-17T03:09:09.740Z,1004.31
2017-03-17T03:10:23.501Z,1004.28
2017-03-17T03:11:37.536Z,1004.29
2017-03-17T03:12:51.107Z,1004.25
2017-03-17T03:14:05.726Z,1004.29
2017-03-17T03:15:19.358Z,1004.26
2017-03-17T03:16:33.509Z,1004.24
2017-03-17T03:17:47.828Z,1004.17
2017-03-17T03:19:02.095Z,1004.16
2017-03-17T03:20:16.184Z,1004.15
2017-03-17T03:21:30.141Z,1004.14
2017-03-17T03:22:44.075Z,1004.11
2017-03-17T03:23:57.792Z,1004.12
2017-03-17T03:25:11.840Z,1004.11
2017-03-17T03:26:25.898Z,1004.11
2017-03-17T03:27:39.507Z,1004.07
2017-03-17T03:28:53.546Z,1004
2017-03-17T03:30:07.596Z,1004.01
2017-03-17T03:31:21.669Z,1004.01
2017-03-17T03:32:35.282Z,1004.03
2017-03-17T03:33:49.246Z,1004.02
2017-03-17T03:35:03.282Z,1004.04
2017-03-17T03:36:17.222Z,1004.03
2017-03-17T03:37:31.218Z,1004.08
2017-03-17T03:38:45.496Z,1004.1
2017-03-17T03:39:59.413Z,1004.16
2017-03-17T03:41:13.477Z,1004.13
2017-03-17T03:42:27.131Z,1004.06
2017-03-17T03:43:40.916Z,1004
2017-03-17T03:44:54.890Z,1004
2017-03-17T03:46:08.513Z,1004.01
2017-03-17T03:47:22.215Z,1003.99
2017-03-17T03:48:35.997Z,1003.99
2017-03-17T03:49:50.170Z,1003.95
2017-03-17T03:51:04.728Z,1003.95
2017-03-17T03:52:19.166Z,1004.01
2017-03-17T03:53:33.717Z,1003.92
2017-03-17T03:54:49.573Z,1003.93
2017-03-17T03:56:04.064Z,1003.92
2017-03-17T03:57:18.711Z,1003.9
2017-03-17T03:58:33.675Z,1003.85
2017-03-17T04:00:00.785Z,1003.82
2017-03-17T04:01:15.617Z,1003.81
2017-03-17T04:02:30.796Z,1003.82
2017-03-17T04:03:45.744Z,1003.77
2017-03-17T04:05:00.351Z,1003.76
2017-03-17T04:06:14.770Z,1003.74
2017-03-17T04:07:29.636Z,1003.78
2017-03-17T04:08:44.913Z,1003.77
2017-03-17T04:09:59.126Z,1003.75
2017-03-17T04:11:14.456Z,1003.71
2017-03-17T04:12:29.450Z,1003.71
2017-03-17T04:13:44.120Z,1003.66
2017-03-17T04:14:58.938Z,1003.66
2017-03-17T04:16:15.885Z,1003.63
2017-03-17T04:17:29.876Z,1003.64
2017-03-17T04:18:44.081Z,1003.6
2017-03-17T04:19:58.301Z,1003.6
2017-03-17T04:21:13.309Z,1003.59
2017-03-17T04:22:29.083Z,1003.62
2017-03-17T04:23:43.636Z,1003.61
2017-03-17T04:24:58.476Z,1003.68
2017-03-17T04:26:12.980Z,1003.69
2017-03-17T04:27:27.059Z,1003.63
2017-03-17T04:28:41.337Z,1003.67
2017-03-17T04:29:56.420Z,1003.69
2017-03-17T04:31:11.324Z,1003.7
2017-03-17T04:32:25.362Z,1003.69
2017-03-17T04:33:39.854Z,1003.74
2017-03-17T04:34:54.700Z,1003.69
2017-03-17T04:36:09.103Z,1003.74
2017-03-17T04:37:23.506Z,1003.74
2017-03-17T04:38:37.722Z,1003.74
2017-03-17T04:39:51.426Z,1003.76
2017-03-17T04:41:05.532Z,1003.76
2017-03-17T04:42:20.242Z,1003.79
2017-03-17T04:43:34.063Z,1003.76
2017-03-17T04:44:48.430Z,1003.76
2017-03-17T04:46:02.423Z,1003.71
2017-03-17T04:47:16.089Z,1003.76
2017-03-17T04:48:29.814Z,1003.75
2017-03-17T04:49:43.554Z,1003.77
2017-03-17T04:50:57.276Z,1003.8
2017-03-17T04:52:10.833Z,1003.79
2017-03-17T04:53:24.786Z,1003.78
2017-03-17T04:54:38.823Z,1003.8
2017-03-17T04:55:52.764Z,1003.79
2017-03-17T04:57:06.409Z,1003.77
2017-03-17T04:58:20.029Z,1003.76
2017-03-17T04:59:33.659Z,1003.72
2017-03-17T05:00:47.931Z,1003.73
2017-03-17T05:02:03.111Z,1003.74
2017-03-17T05:03:17.175Z,1003.74
2017-03-17T05:04:31.492Z,1003.75
2017-03-17T05:05:45.184Z,1003.74
2017-03-17T05:06:58.878Z,1003.7
2017-03-17T05:08:12.564Z,1003.67
2017-03-17T05:09:26.881Z,1003.69
2017-03-17T05:10:40.945Z,1003.66
2017-03-17T05:11:55.504Z,1003.69
2017-03-17T05:13:09.460Z,1003.68
2017-03-17T05:14:23.105Z,1003.64
2017-03-17T05:15:36.761Z,1003.6
2017-03-17T05:16:51.964Z,1003.66
2017-03-17T05:18:05.697Z,1003.64
2017-03-17T05:19:19.488Z,1003.63
2017-03-17T05:20:33.543Z,1003.59
2017-03-17T05:21:47.734Z,1003.6
2017-03-17T05:23:01.375Z,1003.53
2017-03-17T05:24:16.574Z,1003.52
2017-03-17T05:25:31.166Z,1003.51
2017-03-17T05:26:50.567Z,1003.5
2017-03-17T05:28:05.477Z,1003.56
2017-03-17T05:29:22.172Z,1003.58
2017-03-17T05:30:38.486Z,1003.6
2017-03-17T05:31:52.948Z,1003.6
2017-03-17T05:33:09.412Z,1003.58
2017-03-17T05:34:24.049Z,1003.65
2017-03-17T05:35:38.475Z,1003.65
2017-03-17T05:36:53.024Z,1003.67
2017-03-17T05:38:07.156Z,1003.63
2017-03-17T05:39:21.875Z,1003.6
2017-03-17T05:40:35.599Z,1003.64
2017-03-17T05:41:49.726Z,1003.56
2017-03-17T05:43:04.136Z,1003.59
2017-03-17T05:44:18.596Z,1003.64
2017-03-17T05:45:32.800Z,1003.64
2017-03-17T05:46:46.795Z,1003.66
2017-03-17T05:48:15.337Z,1003.66
2017-03-17T05:49:29.061Z,1003.67
2017-03-17T05:50:42.777Z,1003.69
2017-03-17T05:51:56.425Z,1003.66
2017-03-17T05:53:10.152Z,1003.72
2017-03-17T05:54:24.602Z,1003.73
2017-03-17T05:55:38.986Z,1003.76
2017-03-17T05:56:53.157Z,1003.76
2017-03-17T05:58:07.239Z,1003.78
2017-03-17T05:59:21.552Z,1003.81
2017-03-17T06:00:35.912Z,1003.84
2017-03-17T06:01:49.593Z,1003.85
2017-03-17T06:03:03.982Z,1003.85
2017-03-17T06:04:18.957Z,1003.82
2017-03-17T06:05:33.657Z,1003.84
2017-03-17T06:06:47.686Z,1003.86
2017-03-17T06:08:01.391Z,1003.88
2017-03-17T06:09:16.790Z,1003.92
2017-03-17T06:10:30.798Z,1003.91
2017-03-17T06:11:44.535Z,1003.85
2017-03-17T06:12:58.569Z,1003.89
2017-03-17T06:14:12.590Z,1003.91
2017-03-17T06:15:26.486Z,1003.86
2017-03-17T06:16:41.048Z,1003.91
2017-03-17T06:17:55.438Z,1003.9
2017-03-17T06:19:09.915Z,1003.88
2017-03-17T06:20:23.929Z,1003.92
2017-03-17T06:21:38.012Z,1003.93
2017-03-17T06:22:52.380Z,1003.92
2017-03-17T06:24:06.772Z,1003.92
2017-03-17T06:25:21.769Z,1003.86
2017-03-17T06:26:36.867Z,1003.84
2017-03-17T06:27:51.077Z,1003.83
2017-03-17T06:29:05.603Z,1003.91
2017-03-17T06:30:19.839Z,1003.83
2017-03-17T06:31:33.783Z,1003.87
2017-03-17T06:32:49.547Z,1003.9
2017-03-17T06:34:03.290Z,1003.89
2017-03-17T06:35:17.967Z,1003.91
2017-03-17T06:36:31.823Z,1003.88
2017-03-17T06:37:45.874Z,1003.9
2017-03-17T06:38:59.937Z,1003.92
2017-03-17T06:40:14.840Z,1003.9
2017-03-17T06:41:29.252Z,1003.9
2017-03-17T06:42:45.362Z,1003.93
2017-03-17T06:43:59.940Z,1003.98
2017-03-17T06:45:14.432Z,1003.92
2017-03-17T06:46:29.484Z,1004.01
2017-03-17T06:47:43.724Z,1003.93
2017-03-17T06:48:57.826Z,1003.91
2017-03-17T06:50:15.017Z,1003.89
2017-03-17T06:51:29.038Z,1003.89
2017-03-17T06:52:43.381Z,1003.91
2017-03-17T06:53:58.071Z,1003.91
2017-03-17T06:55:11.836Z,1003.95
2017-03-17T06:56:25.615Z,1004.01
2017-03-17T06:57:39.340Z,1003.95
2017-03-17T06:58:53.671Z,1003.98
2017-03-17T07:00:08.305Z,1003.96
2017-03-17T07:01:23.296Z,1003.91
2017-03-17T07:02:37.738Z,1003.93
2017-03-17T07:03:51.467Z,1003.93
2017-03-17T07:05:05.253Z,1003.93
2017-03-17T07:06:20.013Z,1003.89
2017-03-17T07:07:34.155Z,1003.95
2017-03-17T07:08:48.646Z,1003.97
2017-03-17T07:10:04.295Z,1003.94
2017-03-17T07:11:20.571Z,1003.96
2017-03-17T07:12:36.900Z,1003.92
2017-03-17T07:13:51.045Z,1003.93
2017-03-17T07:15:06.496Z,1003.92
2017-03-17T07:16:40.315Z,1003.95
2017-03-17T07:17:55.054Z,1003.92
2017-03-17T07:19:09.907Z,1004
2017-03-17T07:20:25.791Z,1003.99
2017-03-17T07:21:40.335Z,1004
2017-03-17T07:22:54.902Z,1004.01
2017-03-17T07:24:08.727Z,1003.92
2017-03-17T07:25:22.726Z,1004.02
2017-03-17T07:26:37.475Z,1004.01
2017-03-17T07:27:53.363Z,1004.03
2017-03-17T07:29:07.481Z,1004.05
2017-03-17T07:30:21.644Z,1003.99
2017-03-17T07:31:35.865Z,1003.96
2017-03-17T07:32:49.954Z,1003.93
2017-03-17T07:34:03.754Z,1003.95
2017-03-17T07:35:17.515Z,1003.95
2017-03-17T07:36:31.289Z,1003.94
2017-03-17T07:37:44.969Z,1003.93
2017-03-17T07:38:59.440Z,1003.92
2017-03-17T07:40:14.421Z,1003.91
2017-03-17T07:41:29.311Z,1003.94
2017-03-17T07:42:56.136Z,1004.02
2017-03-17T07:44:10.405Z,1004.04
2017-03-17T07:45:24.496Z,1004.1
2017-03-17T07:46:38.512Z,1004.08
2017-03-17T07:47:52.635Z,1004.06
2017-03-17T07:49:06.626Z,1004.12
2017-03-17T07:50:20.760Z,1004.09
2017-03-17T07:51:34.601Z,1004.07
2017-03-17T07:53:07.837Z,1004.02
2017-03-17T07:54:22.524Z,1004.02
2017-03-17T07:55:36.499Z,1004.08
2017-03-17T07:56:50.520Z,1004.11
2017-03-17T07:58:04.142Z,1004.18
2017-03-17T07:59:18.157Z,1004.18
2017-03-17T08:00:32.224Z,1004.23
2017-03-17T08:01:46.592Z,1004.21
2017-03-17T08:03:01.221Z,1004.22
2017-03-17T08:04:15.187Z,1004.18
2017-03-17T08:05:29.160Z,1004.19
2017-03-17T08:06:43.927Z,1004.22
2017-03-17T08:08:00.223Z,1004.22
2017-03-17T08:09:14.590Z,1004.24
2017-03-17T08:10:28.242Z,1004.26
2017-03-17T08:11:42.194Z,1004.25
2017-03-17T08:12:56.923Z,1004.24
2017-03-17T08:14:11.403Z,1004.21
2017-03-17T08:15:25.172Z,1004.22
2017-03-17T08:16:40.231Z,1004.23
2017-03-17T08:17:53.862Z,1004.3
2017-03-17T08:19:07.803Z,1004.37
2017-03-17T08:20:22.118Z,1004.36
2017-03-17T08:21:36.559Z,1004.36
2017-03-17T08:22:50.734Z,1004.45
2017-03-17T08:24:05.753Z,1004.45
2017-03-17T08:25:19.498Z,1004.41
2017-03-17T08:26:33.738Z,1004.44
2017-03-17T08:27:47.429Z,1004.38
2017-03-17T08:29:01.531Z,1004.4
2017-03-17T08:30:15.589Z,1004.42
2017-03-17T08:31:29.356Z,1004.47
2017-03-17T08:32:44.031Z,1004.45
2017-03-17T08:33:58.082Z,1004.44
2017-03-17T08:35:12.218Z,1004.46
2017-03-17T08:36:26.313Z,1004.46
2017-03-17T08:37:40.359Z,1004.53
2017-03-17T08:38:54.887Z,1004.49
2017-03-17T08:40:08.500Z,1004.52
2017-03-17T08:41:22.782Z,1004.49
2017-03-17T08:42:36.558Z,1004.43
2017-03-17T08:43:50.143Z,1004.37
2017-03-17T08:45:04.292Z,1004.37
2017-03-17T08:46:18.744Z,1004.4
2017-03-17T08:47:32.754Z,1004.4
2017-03-17T08:48:46.409Z,1004.41
2017-03-17T08:50:00.043Z,1004.43
2017-03-17T08:51:14.744Z,1004.44
2017-03-17T08:52:28.494Z,1004.51
2017-03-17T08:53:42.990Z,1004.54
2017-03-17T08:54:57.124Z,1004.6
2017-03-17T08:56:11.147Z,1004.63
2017-03-17T08:57:24.923Z,1004.6
2017-03-17T08:58:39.058Z,1004.63
2017-03-17T08:59:53.445Z,1004.63
2017-03-17T09:01:07.760Z,1004.64
2017-03-17T09:02:22.400Z,1004.63
2017-03-17T09:03:36.492Z,1004.66
2017-03-17T09:04:50.522Z,1004.64
2017-03-17T09:06:04.205Z,1004.66
2017-03-17T09:07:18.517Z,1004.63
2017-03-17T09:08:32.835Z,1004.66
2017-03-17T09:09:46.514Z,1004.65
2017-03-17T09:11:00.138Z,1004.73
2017-03-17T09:12:14.623Z,1004.7
2017-03-17T09:13:28.673Z,1004.66
2017-03-17T09:14:42.836Z,1004.64
2017-03-17T09:15:57.162Z,1004.65
2017-03-17T09:17:11.734Z,1004.62
2017-03-17T09:18:26.259Z,1004.65
2017-03-17T09:19:40.301Z,1004.68
2017-03-17T09:20:53.913Z,1004.68
2017-03-17T09:22:07.628Z,1004.74
2017-03-17T09:23:21.679Z,1004.79
2017-03-17T09:24:38.244Z,1004.81
2017-03-17T09:25:51.875Z,1004.85
2017-03-17T09:27:05.836Z,1004.85
2017-03-17T09:28:20.323Z,1004.86
2017-03-17T09:29:33.965Z,1004.82
2017-03-17T09:30:47.934Z,1004.77
2017-03-17T09:32:01.663Z,1004.74
2017-03-17T09:33:16.456Z,1004.79
2017-03-17T09:34:31.858Z,1004.73
2017-03-17T09:35:46.761Z,1004.74
2017-03-17T09:37:01.350Z,1004.72
2017-03-17T09:38:16.627Z,1004.73
2017-03-17T09:39:34.979Z,1004.77
2017-03-17T09:40:51.316Z,1004.69
2017-03-17T09:42:05.938Z,1004.64
2017-03-17T09:43:20.572Z,1004.62
2017-03-17T09:44:36.735Z,1004.6
2017-03-17T09:45:50.499Z,1004.57
2017-03-17T09:47:06.138Z,1004.54
2017-03-17T09:48:21.152Z,1004.53
2017-03-17T09:49:37.883Z,1004.58
2017-03-17T09:50:52.974Z,1004.58
2017-03-17T09:52:07.458Z,1004.56
2017-03-17T09:53:25.933Z,1004.47
2017-03-17T09:54:40.715Z,1004.44
2017-03-17T09:55:55.545Z,1004.37
2017-03-17T09:57:09.947Z,1004.39
2017-03-17T09:58:27.958Z,1004.48
2017-03-17T10:01:12.975Z,1004.42
2017-03-17T10:02:39.657Z,1004.33
2017-03-17T10:04:00.819Z,1004.28
2017-03-17T10:05:16.041Z,1004.34
2017-03-17T10:06:43.322Z,1004.31
2017-03-17T10:07:58.352Z,1004.25
2017-03-17T10:09:13.267Z,1004.2
2017-03-17T10:10:30.547Z,1004.17
2017-03-17T10:11:45.245Z,1004.22
2017-03-17T10:12:59.311Z,1004.27
2017-03-17T10:14:14.324Z,1004.26
2017-03-17T10:15:29.608Z,1004.4
2017-03-17T10:16:46.232Z,1004.38
2017-03-17T10:18:01.573Z,1004.4
2017-03-17T10:19:16.841Z,1004.4
2017-03-17T10:20:30.595Z,1004.42
2017-03-17T10:21:44.392Z,1004.49
2017-03-17T10:22:59.206Z,1004.48
2017-03-17T10:24:14.004Z,1004.51
2017-03-17T10:25:29.134Z,1004.54
2017-03-17T10:26:44.474Z,1004.57
2017-03-17T10:27:59.242Z,1004.55
2017-03-17T10:29:14.119Z,1004.52
2017-03-17T10:30:29.577Z,1004.51
2017-03-17T10:31:45.099Z,1004.5
2017-03-17T10:33:00.715Z,1004.42
2017-03-17T10:34:15.630Z,1004.38
2017-03-17T10:35:31.034Z,1004.34
2017-03-17T10:36:44.942Z,1004.34
2017-03-17T10:37:59.441Z,1004.36
2017-03-17T10:39:15.694Z,1004.33
2017-03-17T10:40:37.739Z,1004.31
2017-03-17T10:41:52.863Z,1004.28
2017-03-17T10:43:09.705Z,1004.23
2017-03-17T10:44:25.258Z,1004.16
2017-03-17T10:45:40.431Z,1004.04
2017-03-17T10:46:56.120Z,1004.09
2017-03-17T10:48:12.737Z,1004.09
2017-03-17T10:49:26.968Z,1004.07
2017-03-17T10:50:42.728Z,1003.98
2017-03-17T10:51:57.178Z,1003.96
2017-03-17T10:53:13.019Z,1004.03
2017-03-17T10:54:26.696Z,1004.03
2017-03-17T10:55:40.670Z,1004.1
2017-03-17T10:56:56.018Z,1004.09
2017-03-17T10:58:10.924Z,1004.01
2017-03-17T10:59:26.415Z,1004.06
2017-03-17T11:00:41.403Z,1004.12
2017-03-17T11:01:56.294Z,1004.11
2017-03-17T11:03:10.855Z,1004.14
2017-03-17T11:04:26.084Z,1004.2
2017-03-17T11:05:40.988Z,1004.24
2017-03-17T11:06:55.749Z,1004.2
2017-03-17T11:08:10.865Z,1004.07
2017-03-17T11:09:26.463Z,1004.1
2017-03-17T11:10:40.407Z,1004.07
2017-03-17T11:11:54.953Z,1003.98
2017-03-17T11:13:09.014Z,1004.01
2017-03-17T11:14:24.193Z,1004.08
2017-03-17T11:15:38.362Z,1004
2017-03-17T11:16:52.705Z,1004.03
2017-03-17T11:18:06.613Z,1003.96
2017-03-17T11:19:21.144Z,1003.93
2017-03-17T11:20:35.394Z,1003.9
2017-03-17T11:21:49.459Z,1003.92
2017-03-17T11:23:04.177Z,1004.03
2017-03-17T11:24:18.645Z,1004.01
2017-03-17T11:25:32.955Z,1003.94
2017-03-17T11:26:47.020Z,1003.88
2017-03-17T11:28:01.179Z,1003.87
2017-03-17T11:29:15.567Z,1003.86
2017-03-17T11:30:30.692Z,1003.87
2017-03-17T11:31:44.337Z,1003.81
2017-03-17T11:32:59.274Z,1003.75
2017-03-17T11:34:15.017Z,1003.82
2017-03-17T11:35:29.483Z,1003.82
2017-03-17T11:36:44.296Z,1003.89
2017-03-17T11:37:58.054Z,1003.86
2017-03-17T11:39:12.944Z,1003.95
2017-03-17T11:40:26.715Z,1004.02
2017-03-17T11:41:41.482Z,1003.91
2017-03-17T11:42:55.710Z,1004.01
2017-03-17T11:44:10.288Z,1003.97
2017-03-17T11:45:24.557Z,1003.9
2017-03-17T11:46:39.554Z,1003.79
2017-03-17T11:47:53.661Z,1003.93
2017-03-17T11:49:09.579Z,1003.86
2017-03-17T11:50:23.960Z,1003.85
2017-03-17T11:51:38.344Z,1003.83
2017-03-17T11:52:52.480Z,1003.84
2017-03-17T11:54:10.940Z,1003.83
2017-03-17T11:55:25.793Z,1003.81
2017-03-17T11:56:39.875Z,1003.77
2017-03-17T11:57:54.312Z,1003.75
2017-03-17T11:59:08.311Z,1003.76
2017-03-17T12:00:24.758Z,1003.74
2017-03-17T12:01:39.481Z,1003.66
2017-03-17T12:02:53.388Z,1003.64
2017-03-17T12:04:07.079Z,1003.68
2017-03-17T12:05:21.435Z,1003.68
2017-03-17T12:06:35.817Z,1003.63
2017-03-17T12:07:49.585Z,1003.69
2017-03-17T12:09:03.438Z,1003.7
2017-03-17T12:10:17.787Z,1003.72
2017-03-17T12:11:32.176Z,1003.63
2017-03-17T12:12:47.007Z,1003.67
2017-03-17T12:14:01.789Z,1003.73
2017-03-17T12:15:16.171Z,1003.71
2017-03-17T12:16:31.294Z,1003.67
2017-03-17T12:17:45.434Z,1003.68
2017-03-17T12:18:59.791Z,1003.71
2017-03-17T12:20:14.449Z,1003.64
2017-03-17T12:21:28.533Z,1003.6
2017-03-17T12:22:42.628Z,1003.66
2017-03-17T12:23:57.055Z,1003.69
2017-03-17T12:25:12.388Z,1003.66
2017-03-17T12:26:27.112Z,1003.53
2017-03-17T12:27:44.610Z,1003.55
2017-03-17T12:28:59.659Z,1003.56
2017-03-17T12:30:13.305Z,1003.5
2017-03-17T12:31:28.010Z,1003.63
2017-03-17T12:32:41.958Z,1003.57
2017-03-17T12:33:57.436Z,1003.51
2017-03-17T12:35:11.707Z,1003.51
2017-03-17T12:36:25.800Z,1003.47
2017-03-17T12:37:40.466Z,1003.46
2017-03-17T12:38:56.301Z,1003.49
2017-03-17T12:40:11.456Z,1003.43
2017-03-17T12:41:25.822Z,1003.42
2017-03-17T12:42:40.629Z,1003.34
2017-03-17T12:43:56.101Z,1003.43
2017-03-17T12:45:10.629Z,1003.45
2017-03-17T12:46:26.816Z,1003.46
2017-03-17T12:47:42.132Z,1003.46
2017-03-17T12:48:57.395Z,1003.47
2017-03-17T12:50:12.528Z,1003.44
2017-03-17T12:51:27.137Z,1003.36
2017-03-17T12:52:42.702Z,1003.46
2017-03-17T12:53:57.418Z,1003.35
2017-03-17T12:55:12.340Z,1003.32
2017-03-17T12:56:27.138Z,1003.29
2017-03-17T12:57:42.173Z,1003.25
2017-03-17T12:58:57.095Z,1003.21
2017-03-17T13:00:11.730Z,1003.19
2017-03-17T13:01:27.249Z,1003.32
2017-03-17T13:02:42.235Z,1003.19
2017-03-17T13:03:57.023Z,1003.31
2017-03-17T13:05:11.125Z,1003.14
2017-03-17T13:06:26.196Z,1003.18
2017-03-17T13:07:40.965Z,1003.21
2017-03-17T13:08:55.710Z,1003.18
2017-03-17T13:10:10.870Z,1003.3
2017-03-17T13:11:25.700Z,1003.25
2017-03-17T13:12:41.201Z,1003.42
2017-03-17T13:13:55.402Z,1003.29
2017-03-17T13:15:10.974Z,1003.28
2017-03-17T13:16:25.100Z,1003.25
2017-03-17T13:17:41.713Z,1003.2
2017-03-17T13:18:56.977Z,1003.27
2017-03-17T13:20:11.725Z,1003.26
2017-03-17T13:21:27.759Z,1003.15
2017-03-17T13:22:42.329Z,1003.15
2017-03-17T13:23:56.312Z,1003.23
2017-03-17T13:25:10.314Z,1003.17
2017-03-17T13:26:25.014Z,1003.18
2017-03-17T13:27:39.377Z,1003.17
2017-03-17T13:28:54.412Z,1003.18
2017-03-17T13:30:08.153Z,1003.21
2017-03-17T13:31:22.582Z,1003.25
2017-03-17T13:32:37.699Z,1003.17
2017-03-17T13:33:53.400Z,1003.07
2017-03-17T13:35:07.415Z,1003.21
2017-03-17T13:36:21.795Z,1003.12
2017-03-17T13:37:36.083Z,1003.14
2017-03-17T13:38:49.733Z,1003.18
2017-03-17T13:40:04.857Z,1003.06
2017-03-17T13:41:19.105Z,1003.12
2017-03-17T13:42:33.844Z,1003.14
2017-03-17T13:43:48.443Z,1003.13
2017-03-17T13:45:03.240Z,1003.12
2017-03-17T13:46:18.046Z,1003.17
2017-03-17T13:47:33.193Z,1003.09
2017-03-17T13:48:47.688Z,1003.08
2017-03-17T13:50:02.820Z,1003.09
2017-03-17T13:51:16.573Z,1003.16
2017-03-17T13:52:30.978Z,1003.17
2017-03-17T13:53:44.650Z,1003.11
2017-03-17T13:54:58.809Z,1003.17
2017-03-17T13:56:12.558Z,1003.16
2017-03-17T13:57:27.233Z,1003.19
2017-03-17T13:58:42.681Z,1003.12
2017-03-17T13:59:57.575Z,1003.19
2017-03-17T14:01:13.336Z,1003.16
2017-03-17T14:02:28.019Z,1003.11
2017-03-17T14:03:42.612Z,1003.12
2017-03-17T14:04:57.466Z,1003.06
2017-03-17T14:06:12.132Z,1003.16
2017-03-17T14:07:27.740Z,1003.14
2017-03-17T14:08:43.463Z,1003.27
2017-03-17T14:09:57.576Z,1003.21
2017-03-17T14:11:12.444Z,1003.18
2017-03-17T14:12:27.884Z,1003.13
2017-03-17T14:13:42.525Z,1003.11
2017-03-17T14:14:56.367Z,1003.08
2017-03-17T14:16:10.323Z,1003.17
2017-03-17T14:17:37.046Z,1003.28
2017-03-17T14:18:50.766Z,1003.11
2017-03-17T14:20:04.913Z,1003.12
2017-03-17T14:21:18.833Z,1003.09
2017-03-17T14:22:33.704Z,1003.19
2017-03-17T14:23:48.555Z,1003.15
2017-03-17T14:25:03.045Z,1003
2017-03-17T14:26:21.555Z,1003.06
2017-03-17T14:27:37.191Z,1003.11
2017-03-17T14:28:51.282Z,1003.06
2017-03-17T14:30:09.703Z,1003.09
2017-03-17T14:31:25.025Z,1003.08
2017-03-17T14:32:40.200Z,1003.08
2017-03-17T14:33:56.013Z,1003.09
2017-03-17T14:35:13.488Z,1003.12
2017-03-17T14:36:28.304Z,1003.1
2017-03-17T14:37:41.980Z,1003.13
2017-03-17T14:38:56.507Z,1003.07
2017-03-17T14:40:11.619Z,1003.01
2017-03-17T14:41:25.678Z,1003.01
2017-03-17T14:42:39.792Z,1002.97
2017-03-17T14:43:54.359Z,1002.95
2017-03-17T14:45:08.751Z,1002.98
2017-03-17T14:46:24.517Z,1003.02
2017-03-17T14:47:39.213Z,1002.99
2017-03-17T14:48:53.623Z,1003.02
2017-03-17T14:50:07.854Z,1002.98
2017-03-17T14:51:22.631Z,1002.9
2017-03-17T14:52:36.366Z,1002.9
2017-03-17T14:53:50.386Z,1002.81
2017-03-17T14:55:04.504Z,1002.79
2017-03-17T14:56:19.195Z,1002.8
2017-03-17T14:57:33.902Z,1002.81
2017-03-17T14:58:47.877Z,1002.79
2017-03-17T15:00:01.982Z,1002.83
2017-03-17T15:01:16.710Z,1002.8
2017-03-17T15:02:30.798Z,1002.85
2017-03-17T15:03:44.730Z,1002.75
2017-03-17T15:04:59.222Z,1002.84
2017-03-17T15:06:14.004Z,1002.88
2017-03-17T15:07:28.014Z,1003.02
2017-03-17T15:08:42.102Z,1002.97
2017-03-17T15:09:56.822Z,1002.93